sensor_id;sensor_type;location;lat;lon;timestamp;temperature;humidity
15906;DHT22;8051;50.820;4.884;2023-05-29T00:02:05;14.40;99.90
15906;DHT22;8051;50.820;4.884;2023-05-29T00:04:33;14.30;99.90
15906;DHT22;8051;50.820;4.884;2023-05-29T00:07:01;14.30;99.90
15906;DHT22;8051;50.820;4.884;2023-05-29T00:09:29;14.10;99.90
15906;DHT22;8051;50.820;4.884;2023-05-29T00:11:56;14.00;99.90
15906;DHT22;8051;50.820;4.884;2023-05-29T00:14:24;14.00;99.90
15906;DHT22;8051;50.820;4.884;2023-05-29T00:16:53;14.00;99.90
15906;DHT22;8051;50.820;4.884;2023-05-29T00:19:22;14.00;99.90
15906;DHT22;8051;50.820;4.884;2023-05-29T00:21:50;13.90;99.90
15906;DHT22;8051;50.820;4.884;2023-05-29T00:24:18;13.90;99.90
15906;DHT22;8051;50.820;4.884;2023-05-29T00:26:46;13.80;99.90
15906;DHT22;8051;50.820;4.884;2023-05-29T00:29:14;13.70;99.90
15906;DHT22;8051;50.820;4.884;2023-05-29T00:31:41;13.70;99.90
15906;DHT22;8051;50.820;4.884;2023-05-29T00:34:10;13.60;99.90
15906;DHT22;8051;50.820;4.884;2023-05-29T00:36:38;13.60;99.90
15906;DHT22;8051;50.820;4.884;2023-05-29T00:39:05;13.50;99.90
15906;DHT22;8051;50.820;4.884;2023-05-29T00:41:33;13.50;99.90
15906;DHT22;8051;50.820;4.884;2023-05-29T00:44:00;13.50;99.90
15906;DHT22;8051;50.820;4.884;2023-05-29T00:46:28;13.40;99.90
15906;DHT22;8051;50.820;4.884;2023-05-29T00:48:56;13.40;99.90
15906;DHT22;8051;50.820;4.884;2023-05-29T00:51:26;13.30;99.90
15906;DHT22;8051;50.820;4.884;2023-05-29T00:53:55;13.30;99.90
15906;DHT22;8051;50.820;4.884;2023-05-29T00:56:24;13.20;99.90
15906;DHT22;8051;50.820;4.884;2023-05-29T00:58:53;13.20;99.90
15906;DHT22;8051;50.820;4.884;2023-05-29T01:01:21;13.10;99.90
15906;DHT22;8051;50.820;4.884;2023-05-29T01:03:48;13.10;99.90
15906;DHT22;8051;50.820;4.884;2023-05-29T01:06:16;13.00;99.90
15906;DHT22;8051;50.820;4.884;2023-05-29T01:08:45;13.10;99.90
15906;DHT22;8051;50.820;4.884;2023-05-29T01:11:18;13.00;99.90
15906;DHT22;8051;50.820;4.884;2023-05-29T01:13:49;12.90;99.90
15906;DHT22;8051;50.820;4.884;2023-05-29T01:16:21;12.90;99.90
15906;DHT22;8051;50.820;4.884;2023-05-29T01:18:59;12.80;99.90
15906;DHT22;8051;50.820;4.884;2023-05-29T01:21:42;12.80;99.90
15906;DHT22;8051;50.820;4.884;2023-05-29T01:24:22;12.80;99.90
15906;DHT22;8051;50.820;4.884;2023-05-29T01:26:56;12.70;99.90
15906;DHT22;8051;50.820;4.884;2023-05-29T01:29:27;12.60;99.90
15906;DHT22;8051;50.820;4.884;2023-05-29T01:31:58;12.60;99.90
15906;DHT22;8051;50.820;4.884;2023-05-29T01:34:25;12.60;99.90
15906;DHT22;8051;50.820;4.884;2023-05-29T01:36:53;12.50;99.90
15906;DHT22;8051;50.820;4.884;2023-05-29T01:39:20;12.50;99.90
15906;DHT22;8051;50.820;4.884;2023-05-29T01:41:48;12.50;99.90
15906;DHT22;8051;50.820;4.884;2023-05-29T01:44:18;12.40;99.90
15906;DHT22;8051;50.820;4.884;2023-05-29T01:46:46;12.40;99.90
15906;DHT22;8051;50.820;4.884;2023-05-29T01:49:15;12.30;99.90
15906;DHT22;8051;50.820;4.884;2023-05-29T01:51:44;12.30;99.90
15906;DHT22;8051;50.820;4.884;2023-05-29T01:54:11;12.20;99.90
15906;DHT22;8051;50.820;4.884;2023-05-29T01:56:39;12.20;99.90
15906;DHT22;8051;50.820;4.884;2023-05-29T01:59:06;12.10;99.90
15906;DHT22;8051;50.820;4.884;2023-05-29T02:01:38;12.10;99.90
15906;DHT22;8051;50.820;4.884;2023-05-29T02:04:06;12.10;99.90
15906;DHT22;8051;50.820;4.884;2023-05-29T02:06:33;12.00;99.90
15906;DHT22;8051;50.820;4.884;2023-05-29T02:09:01;12.00;99.90
15906;DHT22;8051;50.820;4.884;2023-05-29T02:11:28;12.00;99.90
15906;DHT22;8051;50.820;4.884;2023-05-29T02:13:56;11.90;99.90
15906;DHT22;8051;50.820;4.884;2023-05-29T02:16:23;11.80;99.90
15906;DHT22;8051;50.820;4.884;2023-05-29T02:18:55;11.80;99.90
15906;DHT22;8051;50.820;4.884;2023-05-29T02:21:23;11.70;99.90
15906;DHT22;8051;50.820;4.884;2023-05-29T02:23:50;11.70;99.90
15906;DHT22;8051;50.820;4.884;2023-05-29T02:26:18;11.60;99.90
15906;DHT22;8051;50.820;4.884;2023-05-29T02:28:45;11.60;99.90
15906;DHT22;8051;50.820;4.884;2023-05-29T02:31:13;11.50;99.90
15906;DHT22;8051;50.820;4.884;2023-05-29T02:33:40;11.50;99.90
15906;DHT22;8051;50.820;4.884;2023-05-29T02:36:09;11.50;99.90
15906;DHT22;8051;50.820;4.884;2023-05-29T02:38:37;11.40;99.90
15906;DHT22;8051;50.820;4.884;2023-05-29T02:41:05;11.40;99.90
15906;DHT22;8051;50.820;4.884;2023-05-29T02:43:33;11.40;99.90
15906;DHT22;8051;50.820;4.884;2023-05-29T02:46:00;11.40;99.90
15906;DHT22;8051;50.820;4.884;2023-05-29T02:48:28;11.30;99.90
15906;DHT22;8051;50.820;4.884;2023-05-29T02:50:56;11.30;99.90
15906;DHT22;8051;50.820;4.884;2023-05-29T02:53:25;11.30;99.90
15906;DHT22;8051;50.820;4.884;2023-05-29T02:55:52;11.20;99.90
15906;DHT22;8051;50.820;4.884;2023-05-29T02:58:20;11.20;99.90
15906;DHT22;8051;50.820;4.884;2023-05-29T03:00:48;11.20;99.90
15906;DHT22;8051;50.820;4.884;2023-05-29T03:03:16;11.20;99.90
15906;DHT22;8051;50.820;4.884;2023-05-29T03:05:43;11.20;99.90
15906;DHT22;8051;50.820;4.884;2023-05-29T03:08:11;11.20;99.90
15906;DHT22;8051;50.820;4.884;2023-05-29T03:10:40;11.20;99.90
15906;DHT22;8051;50.820;4.884;2023-05-29T03:13:07;11.20;99.90
15906;DHT22;8051;50.820;4.884;2023-05-29T03:15:34;11.20;99.90
15906;DHT22;8051;50.820;4.884;2023-05-29T03:18:02;11.20;99.90
15906;DHT22;8051;50.820;4.884;2023-05-29T03:20:29;11.10;99.90
15906;DHT22;8051;50.820;4.884;2023-05-29T03:22:57;11.10;99.90
15906;DHT22;8051;50.820;4.884;2023-05-29T03:25:26;11.10;99.90
15906;DHT22;8051;50.820;4.884;2023-05-29T03:27:55;11.10;99.90
15906;DHT22;8051;50.820;4.884;2023-05-29T03:30:22;11.00;99.90
15906;DHT22;8051;50.820;4.884;2023-05-29T03:32:49;11.00;99.90
15906;DHT22;8051;50.820;4.884;2023-05-29T03:35:17;10.90;99.90
15906;DHT22;8051;50.820;4.884;2023-05-29T03:37:44;10.90;99.90
15906;DHT22;8051;50.820;4.884;2023-05-29T03:40:12;10.90;99.90
15906;DHT22;8051;50.820;4.884;2023-05-29T03:42:40;10.80;99.90
15906;DHT22;8051;50.820;4.884;2023-05-29T03:45:10;10.80;99.90
15906;DHT22;8051;50.820;4.884;2023-05-29T03:47:37;10.80;99.90
15906;DHT22;8051;50.820;4.884;2023-05-29T03:50:06;10.80;99.90
15906;DHT22;8051;50.820;4.884;2023-05-29T03:52:34;10.80;99.90
15906;DHT22;8051;50.820;4.884;2023-05-29T03:55:02;10.80;99.90
15906;DHT22;8051;50.820;4.884;2023-05-29T03:57:29;10.80;99.90
15906;DHT22;8051;50.820;4.884;2023-05-29T03:59:57;10.80;99.90
15906;DHT22;8051;50.820;4.884;2023-05-29T04:02:25;10.80;99.90
15906;DHT22;8051;50.820;4.884;2023-05-29T04:04:53;10.80;99.90
15906;DHT22;8051;50.820;4.884;2023-05-29T04:07:21;10.80;99.90
15906;DHT22;8051;50.820;4.884;2023-05-29T04:09:48;10.90;99.90
15906;DHT22;8051;50.820;4.884;2023-05-29T04:12:16;10.90;99.90
15906;DHT22;8051;50.820;4.884;2023-05-29T04:14:43;11.00;99.90
15906;DHT22;8051;50.820;4.884;2023-05-29T04:17:11;11.00;99.90
15906;DHT22;8051;50.820;4.884;2023-05-29T04:19:40;11.10;99.90
15906;DHT22;8051;50.820;4.884;2023-05-29T04:22:07;11.30;99.90
15906;DHT22;8051;50.820;4.884;2023-05-29T04:24:35;11.30;99.90
15906;DHT22;8051;50.820;4.884;2023-05-29T04:27:02;11.40;99.90
15906;DHT22;8051;50.820;4.884;2023-05-29T04:29:30;11.30;99.90
15906;DHT22;8051;50.820;4.884;2023-05-29T04:31:58;11.50;99.90
15906;DHT22;8051;50.820;4.884;2023-05-29T04:34:29;11.50;99.90
15906;DHT22;8051;50.820;4.884;2023-05-29T04:36:58;11.40;99.90
15906;DHT22;8051;50.820;4.884;2023-05-29T04:39:25;11.50;99.90
15906;DHT22;8051;50.820;4.884;2023-05-29T04:41:53;11.60;99.90
15906;DHT22;8051;50.820;4.884;2023-05-29T04:44:22;11.80;99.90
15906;DHT22;8051;50.820;4.884;2023-05-29T04:46:52;11.90;99.90
15906;DHT22;8051;50.820;4.884;2023-05-29T04:49:19;12.00;99.90
15906;DHT22;8051;50.820;4.884;2023-05-29T04:51:47;12.10;99.90
15906;DHT22;8051;50.820;4.884;2023-05-29T04:54:21;12.10;99.90
15906;DHT22;8051;50.820;4.884;2023-05-29T04:56:49;12.10;99.90
15906;DHT22;8051;50.820;4.884;2023-05-29T04:59:16;12.20;99.90
15906;DHT22;8051;50.820;4.884;2023-05-29T05:01:43;12.30;99.90
15906;DHT22;8051;50.820;4.884;2023-05-29T05:04:13;12.40;99.90
15906;DHT22;8051;50.820;4.884;2023-05-29T05:06:40;12.50;99.90
15906;DHT22;8051;50.820;4.884;2023-05-29T05:09:09;12.40;99.90
15906;DHT22;8051;50.820;4.884;2023-05-29T05:11:38;12.50;99.90
15906;DHT22;8051;50.820;4.884;2023-05-29T05:14:06;12.50;99.90
15906;DHT22;8051;50.820;4.884;2023-05-29T05:16:33;12.40;99.90
15906;DHT22;8051;50.820;4.884;2023-05-29T05:19:00;12.40;99.90
15906;DHT22;8051;50.820;4.884;2023-05-29T05:21:28;12.30;99.90
15906;DHT22;8051;50.820;4.884;2023-05-29T05:23:57;12.30;99.90
15906;DHT22;8051;50.820;4.884;2023-05-29T05:26:25;12.40;99.90
15906;DHT22;8051;50.820;4.884;2023-05-29T05:28:54;12.50;99.90
15906;DHT22;8051;50.820;4.884;2023-05-29T05:31:22;12.50;99.90
15906;DHT22;8051;50.820;4.884;2023-05-29T05:33:50;12.40;99.90
15906;DHT22;8051;50.820;4.884;2023-05-29T05:36:17;12.40;99.90
15906;DHT22;8051;50.820;4.884;2023-05-29T05:38:45;12.50;99.90
15906;DHT22;8051;50.820;4.884;2023-05-29T05:41:12;12.70;99.90
15906;DHT22;8051;50.820;4.884;2023-05-29T05:43:40;12.70;99.90
15906;DHT22;8051;50.820;4.884;2023-05-29T05:46:10;12.60;99.90
15906;DHT22;8051;50.820;4.884;2023-05-29T05:48:39;12.70;99.90
15906;DHT22;8051;50.820;4.884;2023-05-29T05:51:07;12.70;99.90
15906;DHT22;8051;50.820;4.884;2023-05-29T05:53:34;13.00;99.90
15906;DHT22;8051;50.820;4.884;2023-05-29T05:56:02;13.10;99.90
15906;DHT22;8051;50.820;4.884;2023-05-29T05:58:29;12.90;99.90
15906;DHT22;8051;50.820;4.884;2023-05-29T06:00:56;12.80;99.90
15906;DHT22;8051;50.820;4.884;2023-05-29T06:03:25;12.90;99.90
15906;DHT22;8051;50.820;4.884;2023-05-29T06:05:53;12.80;99.90
15906;DHT22;8051;50.820;4.884;2023-05-29T06:08:21;12.80;99.90
15906;DHT22;8051;50.820;4.884;2023-05-29T06:10:48;12.80;99.90
15906;DHT22;8051;50.820;4.884;2023-05-29T06:13:16;12.80;99.90
15906;DHT22;8051;50.820;4.884;2023-05-29T06:15:44;12.80;99.90
15906;DHT22;8051;50.820;4.884;2023-05-29T06:18:12;12.70;99.90
15906;DHT22;8051;50.820;4.884;2023-05-29T06:20:40;12.90;99.90
15906;DHT22;8051;50.820;4.884;2023-05-29T06:23:08;12.90;99.90
15906;DHT22;8051;50.820;4.884;2023-05-29T06:25:36;12.70;99.90
15906;DHT22;8051;50.820;4.884;2023-05-29T06:28:04;12.90;99.90
15906;DHT22;8051;50.820;4.884;2023-05-29T06:30:32;12.90;99.90
15906;DHT22;8051;50.820;4.884;2023-05-29T06:33:00;13.00;99.90
15906;DHT22;8051;50.820;4.884;2023-05-29T06:35:28;13.10;99.90
15906;DHT22;8051;50.820;4.884;2023-05-29T06:37:57;13.00;99.90
15906;DHT22;8051;50.820;4.884;2023-05-29T06:40:24;12.90;99.90
15906;DHT22;8051;50.820;4.884;2023-05-29T06:42:52;13.00;99.90
15906;DHT22;8051;50.820;4.884;2023-05-29T06:45:19;12.90;99.90
15906;DHT22;8051;50.820;4.884;2023-05-29T06:47:46;13.00;99.90
15906;DHT22;8051;50.820;4.884;2023-05-29T06:50:14;13.00;99.90
15906;DHT22;8051;50.820;4.884;2023-05-29T06:52:42;13.00;99.90
15906;DHT22;8051;50.820;4.884;2023-05-29T06:55:10;13.10;99.90
15906;DHT22;8051;50.820;4.884;2023-05-29T06:57:38;13.10;99.90
15906;DHT22;8051;50.820;4.884;2023-05-29T07:00:06;13.30;99.90
15906;DHT22;8051;50.820;4.884;2023-05-29T07:02:35;13.50;99.90
15906;DHT22;8051;50.820;4.884;2023-05-29T07:05:02;13.50;99.90
15906;DHT22;8051;50.820;4.884;2023-05-29T07:07:30;13.50;99.90
15906;DHT22;8051;50.820;4.884;2023-05-29T07:09:58;13.50;99.90
15906;DHT22;8051;50.820;4.884;2023-05-29T07:12:27;13.60;99.90
15906;DHT22;8051;50.820;4.884;2023-05-29T07:14:54;13.60;99.90
15906;DHT22;8051;50.820;4.884;2023-05-29T07:17:22;13.50;99.90
15906;DHT22;8051;50.820;4.884;2023-05-29T07:19:49;13.70;99.90
15906;DHT22;8051;50.820;4.884;2023-05-29T07:22:18;13.70;99.90
15906;DHT22;8051;50.820;4.884;2023-05-29T07:24:49;13.60;99.90
15906;DHT22;8051;50.820;4.884;2023-05-29T07:27:17;13.50;99.90
15906;DHT22;8051;50.820;4.884;2023-05-29T07:29:46;13.70;99.90
15906;DHT22;8051;50.820;4.884;2023-05-29T07:32:15;13.80;99.90
15906;DHT22;8051;50.820;4.884;2023-05-29T07:34:42;13.80;99.90
15906;DHT22;8051;50.820;4.884;2023-05-29T07:37:11;13.90;99.90
15906;DHT22;8051;50.820;4.884;2023-05-29T07:39:38;14.00;99.90
15906;DHT22;8051;50.820;4.884;2023-05-29T07:42:06;14.10;99.90
15906;DHT22;8051;50.820;4.884;2023-05-29T07:44:34;14.00;99.90
15906;DHT22;8051;50.820;4.884;2023-05-29T07:47:03;14.20;99.90
15906;DHT22;8051;50.820;4.884;2023-05-29T07:49:31;14.20;99.90
15906;DHT22;8051;50.820;4.884;2023-05-29T07:51:58;14.40;99.90
15906;DHT22;8051;50.820;4.884;2023-05-29T07:54:26;14.60;99.90
15906;DHT22;8051;50.820;4.884;2023-05-29T07:56:53;14.40;99.90
15906;DHT22;8051;50.820;4.884;2023-05-29T07:59:21;14.60;99.90
15906;DHT22;8051;50.820;4.884;2023-05-29T08:01:49;14.70;99.90
15906;DHT22;8051;50.820;4.884;2023-05-29T08:04:18;14.80;99.90
15906;DHT22;8051;50.820;4.884;2023-05-29T08:06:45;14.80;99.90
15906;DHT22;8051;50.820;4.884;2023-05-29T08:09:13;14.80;99.90
15906;DHT22;8051;50.820;4.884;2023-05-29T08:11:40;14.90;99.90
15906;DHT22;8051;50.820;4.884;2023-05-29T08:14:08;15.00;99.90
15906;DHT22;8051;50.820;4.884;2023-05-29T08:16:35;14.90;99.90
15906;DHT22;8051;50.820;4.884;2023-05-29T08:19:03;14.80;99.90
15906;DHT22;8051;50.820;4.884;2023-05-29T08:21:32;14.90;99.90
15906;DHT22;8051;50.820;4.884;2023-05-29T08:24:01;15.10;99.90
15906;DHT22;8051;50.820;4.884;2023-05-29T08:26:30;15.00;99.90
15906;DHT22;8051;50.820;4.884;2023-05-29T08:28:58;15.00;99.90
15906;DHT22;8051;50.820;4.884;2023-05-29T08:31:25;15.10;99.90
15906;DHT22;8051;50.820;4.884;2023-05-29T08:33:53;15.20;99.90
15906;DHT22;8051;50.820;4.884;2023-05-29T08:36:21;15.20;99.90
15906;DHT22;8051;50.820;4.884;2023-05-29T08:38:50;15.10;99.90
15906;DHT22;8051;50.820;4.884;2023-05-29T08:41:21;15.20;99.90
15906;DHT22;8051;50.820;4.884;2023-05-29T08:43:51;15.20;99.90
15906;DHT22;8051;50.820;4.884;2023-05-29T08:46:21;15.30;99.90
15906;DHT22;8051;50.820;4.884;2023-05-29T08:48:50;15.50;99.90
15906;DHT22;8051;50.820;4.884;2023-05-29T08:51:23;15.60;99.90
15906;DHT22;8051;50.820;4.884;2023-05-29T08:53:58;15.70;99.90
15906;DHT22;8051;50.820;4.884;2023-05-29T08:56:26;16.00;99.90
15906;DHT22;8051;50.820;4.884;2023-05-29T08:58:54;16.00;99.90
15906;DHT22;8051;50.820;4.884;2023-05-29T09:01:22;16.00;99.90
15906;DHT22;8051;50.820;4.884;2023-05-29T09:03:50;16.00;99.90
15906;DHT22;8051;50.820;4.884;2023-05-29T09:06:17;16.10;99.90
15906;DHT22;8051;50.820;4.884;2023-05-29T09:08:47;16.10;99.90
15906;DHT22;8051;50.820;4.884;2023-05-29T09:11:16;16.20;99.90
15906;DHT22;8051;50.820;4.884;2023-05-29T09:13:43;16.20;99.90
15906;DHT22;8051;50.820;4.884;2023-05-29T09:16:11;16.20;99.90
15906;DHT22;8051;50.820;4.884;2023-05-29T09:18:38;16.30;99.90
15906;DHT22;8051;50.820;4.884;2023-05-29T09:21:08;16.40;99.90
15906;DHT22;8051;50.820;4.884;2023-05-29T09:23:35;16.40;99.90
15906;DHT22;8051;50.820;4.884;2023-05-29T09:26:03;16.40;99.90
15906;DHT22;8051;50.820;4.884;2023-05-29T09:28:32;16.60;99.90
15906;DHT22;8051;50.820;4.884;2023-05-29T09:31:00;17.00;99.90
15906;DHT22;8051;50.820;4.884;2023-05-29T09:33:27;16.90;99.90
15906;DHT22;8051;50.820;4.884;2023-05-29T09:35:55;16.80;99.90
15906;DHT22;8051;50.820;4.884;2023-05-29T09:38:22;16.50;99.90
15906;DHT22;8051;50.820;4.884;2023-05-29T09:40:50;16.50;99.90
15906;DHT22;8051;50.820;4.884;2023-05-29T09:43:21;16.50;99.90
15906;DHT22;8051;50.820;4.884;2023-05-29T09:45:50;16.60;99.90
15906;DHT22;8051;50.820;4.884;2023-05-29T09:48:23;16.80;99.90
15906;DHT22;8051;50.820;4.884;2023-05-29T09:50:50;16.70;99.90
15906;DHT22;8051;50.820;4.884;2023-05-29T09:53:22;16.70;99.90
15906;DHT22;8051;50.820;4.884;2023-05-29T09:55:51;16.70;99.90
15906;DHT22;8051;50.820;4.884;2023-05-29T09:58:19;17.00;99.90
15906;DHT22;8051;50.820;4.884;2023-05-29T10:00:47;17.00;99.90
15906;DHT22;8051;50.820;4.884;2023-05-29T10:03:16;17.30;99.90
15906;DHT22;8051;50.820;4.884;2023-05-29T10:05:47;17.50;99.90
15906;DHT22;8051;50.820;4.884;2023-05-29T10:08:19;17.80;99.90
15906;DHT22;8051;50.820;4.884;2023-05-29T10:10:53;17.60;99.90
15906;DHT22;8051;50.820;4.884;2023-05-29T10:13:24;17.40;99.90
15906;DHT22;8051;50.820;4.884;2023-05-29T10:15:55;17.40;99.90
15906;DHT22;8051;50.820;4.884;2023-05-29T10:18:27;17.40;99.90
15906;DHT22;8051;50.820;4.884;2023-05-29T10:21:00;17.40;99.90
15906;DHT22;8051;50.820;4.884;2023-05-29T10:23:30;17.50;99.90
15906;DHT22;8051;50.820;4.884;2023-05-29T10:26:01;17.70;99.90
15906;DHT22;8051;50.820;4.884;2023-05-29T10:28:33;17.70;99.90
15906;DHT22;8051;50.820;4.884;2023-05-29T10:31:06;17.60;99.90
15906;DHT22;8051;50.820;4.884;2023-05-29T10:33:52;17.60;99.90
15906;DHT22;8051;50.820;4.884;2023-05-29T10:36:30;17.80;99.90
15906;DHT22;8051;50.820;4.884;2023-05-29T10:38:58;17.80;99.90
15906;DHT22;8051;50.820;4.884;2023-05-29T10:41:30;17.80;99.90
15906;DHT22;8051;50.820;4.884;2023-05-29T10:43:59;17.70;99.90
15906;DHT22;8051;50.820;4.884;2023-05-29T10:47:01;17.80;99.90
15906;DHT22;8051;50.820;4.884;2023-05-29T10:49:30;17.80;99.90
15906;DHT22;8051;50.820;4.884;2023-05-29T10:51:58;17.70;99.90
15906;DHT22;8051;50.820;4.884;2023-05-29T10:54:26;17.90;99.90
15906;DHT22;8051;50.820;4.884;2023-05-29T10:56:56;17.80;99.90
15906;DHT22;8051;50.820;4.884;2023-05-29T10:59:25;17.60;99.90
15906;DHT22;8051;50.820;4.884;2023-05-29T11:01:54;17.80;99.90
15906;DHT22;8051;50.820;4.884;2023-05-29T11:04:27;17.90;99.90
15906;DHT22;8051;50.820;4.884;2023-05-29T11:06:58;17.90;99.90
15906;DHT22;8051;50.820;4.884;2023-05-29T11:09:27;18.20;99.90
15906;DHT22;8051;50.820;4.884;2023-05-29T11:12:17;18.30;99.90
15906;DHT22;8051;50.820;4.884;2023-05-29T11:15:03;18.50;99.90
15906;DHT22;8051;50.820;4.884;2023-05-29T11:17:32;18.50;99.90
15906;DHT22;8051;50.820;4.884;2023-05-29T11:20:05;18.70;99.90
15906;DHT22;8051;50.820;4.884;2023-05-29T11:22:53;18.70;99.90
15906;DHT22;8051;50.820;4.884;2023-05-29T11:25:23;18.90;99.90
15906;DHT22;8051;50.820;4.884;2023-05-29T11:27:51;19.00;99.90
15906;DHT22;8051;50.820;4.884;2023-05-29T11:30:19;18.80;99.90
15906;DHT22;8051;50.820;4.884;2023-05-29T11:32:47;18.90;99.90
15906;DHT22;8051;50.820;4.884;2023-05-29T11:35:15;19.10;99.90
15906;DHT22;8051;50.820;4.884;2023-05-29T11:37:45;19.10;99.90
15906;DHT22;8051;50.820;4.884;2023-05-29T11:40:14;19.20;99.90
15906;DHT22;8051;50.820;4.884;2023-05-29T11:42:42;19.10;99.90
15906;DHT22;8051;50.820;4.884;2023-05-29T11:45:12;19.30;99.90
15906;DHT22;8051;50.820;4.884;2023-05-29T11:47:53;19.50;99.90
15906;DHT22;8051;50.820;4.884;2023-05-29T11:50:21;19.70;99.90
15906;DHT22;8051;50.820;4.884;2023-05-29T11:52:51;19.30;99.90
15906;DHT22;8051;50.820;4.884;2023-05-29T11:55:18;19.30;99.90
15906;DHT22;8051;50.820;4.884;2023-05-29T11:57:47;19.30;99.90
15906;DHT22;8051;50.820;4.884;2023-05-29T12:00:16;19.40;99.90
15906;DHT22;8051;50.820;4.884;2023-05-29T12:02:44;19.40;99.90
15906;DHT22;8051;50.820;4.884;2023-05-29T12:05:13;19.50;99.90
15906;DHT22;8051;50.820;4.884;2023-05-29T12:07:47;19.60;99.90
15906;DHT22;8051;50.820;4.884;2023-05-29T12:10:18;19.80;99.90
15906;DHT22;8051;50.820;4.884;2023-05-29T12:12:50;19.70;99.90
15906;DHT22;8051;50.820;4.884;2023-05-29T12:15:18;19.80;99.90
15906;DHT22;8051;50.820;4.884;2023-05-29T12:17:48;20.00;99.90
15906;DHT22;8051;50.820;4.884;2023-05-29T12:20:16;20.10;99.90
15906;DHT22;8051;50.820;4.884;2023-05-29T12:22:45;20.10;99.90
15906;DHT22;8051;50.820;4.884;2023-05-29T12:25:14;20.30;99.90
15906;DHT22;8051;50.820;4.884;2023-05-29T12:27:44;20.30;99.90
15906;DHT22;8051;50.820;4.884;2023-05-29T12:30:13;20.30;99.90
15906;DHT22;8051;50.820;4.884;2023-05-29T12:32:42;20.30;99.90
15906;DHT22;8051;50.820;4.884;2023-05-29T12:35:12;20.40;99.90
15906;DHT22;8051;50.820;4.884;2023-05-29T12:37:43;20.20;99.90
15906;DHT22;8051;50.820;4.884;2023-05-29T12:40:14;20.40;99.90
15906;DHT22;8051;50.820;4.884;2023-05-29T12:42:43;20.50;99.90
15906;DHT22;8051;50.820;4.884;2023-05-29T12:45:11;20.30;99.90
15906;DHT22;8051;50.820;4.884;2023-05-29T12:47:45;20.40;99.90
15906;DHT22;8051;50.820;4.884;2023-05-29T12:50:24;20.40;99.90
15906;DHT22;8051;50.820;4.884;2023-05-29T12:52:56;20.80;99.90
15906;DHT22;8051;50.820;4.884;2023-05-29T12:55:24;20.80;99.90
15906;DHT22;8051;50.820;4.884;2023-05-29T12:57:53;20.70;99.90
15906;DHT22;8051;50.820;4.884;2023-05-29T13:00:21;20.80;99.90
15906;DHT22;8051;50.820;4.884;2023-05-29T13:02:49;21.00;99.90
15906;DHT22;8051;50.820;4.884;2023-05-29T13:05:17;21.00;99.90
15906;DHT22;8051;50.820;4.884;2023-05-29T13:07:49;21.20;99.90
15906;DHT22;8051;50.820;4.884;2023-05-29T13:10:17;20.80;99.90
15906;DHT22;8051;50.820;4.884;2023-05-29T13:12:44;20.70;99.90
15906;DHT22;8051;50.820;4.884;2023-05-29T13:15:14;20.80;99.90
15906;DHT22;8051;50.820;4.884;2023-05-29T13:17:44;21.10;99.90
15906;DHT22;8051;50.820;4.884;2023-05-29T13:20:12;21.10;99.90
15906;DHT22;8051;50.820;4.884;2023-05-29T13:22:41;20.90;99.90
15906;DHT22;8051;50.820;4.884;2023-05-29T13:25:10;20.80;99.90
15906;DHT22;8051;50.820;4.884;2023-05-29T13:27:39;20.90;99.90
15906;DHT22;8051;50.820;4.884;2023-05-29T13:30:08;20.80;99.90
15906;DHT22;8051;50.820;4.884;2023-05-29T13:32:37;20.40;99.90
15906;DHT22;8051;50.820;4.884;2023-05-29T13:35:06;20.40;99.90
15906;DHT22;8051;50.820;4.884;2023-05-29T13:37:35;20.70;99.90
15906;DHT22;8051;50.820;4.884;2023-05-29T13:40:03;20.80;99.90
15906;DHT22;8051;50.820;4.884;2023-05-29T13:42:31;20.80;99.90
15906;DHT22;8051;50.820;4.884;2023-05-29T13:44:58;20.90;99.90
15906;DHT22;8051;50.820;4.884;2023-05-29T13:47:25;21.00;99.90
15906;DHT22;8051;50.820;4.884;2023-05-29T13:49:56;20.90;99.90
15906;DHT22;8051;50.820;4.884;2023-05-29T13:52:23;21.20;99.90
15906;DHT22;8051;50.820;4.884;2023-05-29T13:54:50;21.40;99.90
15906;DHT22;8051;50.820;4.884;2023-05-29T13:57:18;20.80;99.90
15906;DHT22;8051;50.820;4.884;2023-05-29T13:59:46;20.90;99.90
15906;DHT22;8051;50.820;4.884;2023-05-29T14:02:13;20.90;99.90
15906;DHT22;8051;50.820;4.884;2023-05-29T14:04:41;20.90;99.90
15906;DHT22;8051;50.820;4.884;2023-05-29T14:07:11;21.20;99.90
15906;DHT22;8051;50.820;4.884;2023-05-29T14:09:38;21.10;99.90
15906;DHT22;8051;50.820;4.884;2023-05-29T14:12:06;21.10;99.90
15906;DHT22;8051;50.820;4.884;2023-05-29T14:14:34;21.20;99.90
15906;DHT22;8051;50.820;4.884;2023-05-29T14:17:01;21.40;99.90
15906;DHT22;8051;50.820;4.884;2023-05-29T14:19:31;21.40;99.90
15906;DHT22;8051;50.820;4.884;2023-05-29T14:21:58;21.30;99.90
15906;DHT22;8051;50.820;4.884;2023-05-29T14:24:28;21.30;99.90
15906;DHT22;8051;50.820;4.884;2023-05-29T14:26:55;21.60;99.90
15906;DHT22;8051;50.820;4.884;2023-05-29T14:29:23;21.50;99.90
15906;DHT22;8051;50.820;4.884;2023-05-29T14:31:51;21.50;99.90
15906;DHT22;8051;50.820;4.884;2023-05-29T14:34:18;21.50;99.90
15906;DHT22;8051;50.820;4.884;2023-05-29T14:36:46;21.60;99.90
15906;DHT22;8051;50.820;4.884;2023-05-29T14:39:13;21.80;99.90
15906;DHT22;8051;50.820;4.884;2023-05-29T14:41:42;22.00;99.90
15906;DHT22;8051;50.820;4.884;2023-05-29T14:44:09;22.10;99.90
15906;DHT22;8051;50.820;4.884;2023-05-29T14:46:38;22.00;99.90
15906;DHT22;8051;50.820;4.884;2023-05-29T14:49:06;22.00;99.90
15906;DHT22;8051;50.820;4.884;2023-05-29T14:51:33;21.80;99.90
15906;DHT22;8051;50.820;4.884;2023-05-29T14:54:02;21.80;99.90
15906;DHT22;8051;50.820;4.884;2023-05-29T14:56:29;21.70;99.90
15906;DHT22;8051;50.820;4.884;2023-05-29T14:58:58;21.70;99.90
15906;DHT22;8051;50.820;4.884;2023-05-29T15:01:26;22.00;99.90
15906;DHT22;8051;50.820;4.884;2023-05-29T15:03:53;21.80;99.90
15906;DHT22;8051;50.820;4.884;2023-05-29T15:06:21;21.80;99.90
15906;DHT22;8051;50.820;4.884;2023-05-29T15:08:49;21.80;99.90
15906;DHT22;8051;50.820;4.884;2023-05-29T15:11:16;21.50;99.90
15906;DHT22;8051;50.820;4.884;2023-05-29T15:13:45;21.70;99.90
15906;DHT22;8051;50.820;4.884;2023-05-29T15:16:14;21.70;99.90
15906;DHT22;8051;50.820;4.884;2023-05-29T15:18:42;21.50;99.90
15906;DHT22;8051;50.820;4.884;2023-05-29T15:21:09;21.30;99.90
15906;DHT22;8051;50.820;4.884;2023-05-29T15:23:37;21.30;99.90
15906;DHT22;8051;50.820;4.884;2023-05-29T15:26:06;21.50;99.90
15906;DHT22;8051;50.820;4.884;2023-05-29T15:28:34;21.40;99.90
15906;DHT22;8051;50.820;4.884;2023-05-29T15:31:02;21.60;99.90
15906;DHT22;8051;50.820;4.884;2023-05-29T15:33:31;21.80;99.90
15906;DHT22;8051;50.820;4.884;2023-05-29T15:35:58;21.80;99.90
15906;DHT22;8051;50.820;4.884;2023-05-29T15:38:26;21.80;99.90
15906;DHT22;8051;50.820;4.884;2023-05-29T15:40:54;22.10;99.90
15906;DHT22;8051;50.820;4.884;2023-05-29T15:43:21;22.50;99.90
15906;DHT22;8051;50.820;4.884;2023-05-29T15:45:49;22.60;99.90
15906;DHT22;8051;50.820;4.884;2023-05-29T15:48:17;22.50;99.90
15906;DHT22;8051;50.820;4.884;2023-05-29T15:50:46;22.50;99.90
15906;DHT22;8051;50.820;4.884;2023-05-29T15:53:13;22.40;99.90
15906;DHT22;8051;50.820;4.884;2023-05-29T15:55:41;22.00;99.90